Time;durP1;ratioP1;P1;durP2;ratioP2;P2;SDS_P1;SDS_P2;PMS_P1;PMS_P2;Temp;Humidity;BMP_temperature;BMP_pressure;BME280_temperature;BME280_humidity;BME280_pressure;Samples;Min_cycle;Max_cycle;Signal;HPM_P1;HPM_P2
2022/12/19 00:00:20;;;;;;;24.17;12.40;;;0.40;99.90;;;;;;5054446;28;20052;-68
2022/12/19 00:02:46;;;;;;;23.80;12.68;;;0.30;99.90;;;;;;5054397;28;20469;-68
2022/12/19 00:05:12;;;;;;;22.85;12.45;;;0.50;99.90;;;;;;5055425;28;20127;-68
2022/12/19 00:07:38;;;;;;;21.38;12.75;;;1.80;99.90;;;;;;5054325;28;20095;-68
2022/12/19 00:10:05;;;;;;;25.63;12.68;;;0.90;99.90;;;;;;5054542;28;20144;-67
2022/12/19 00:12:31;;;;;;;24.00;12.65;;;0.50;99.90;;;;;;5055467;28;20045;-68
2022/12/19 00:14:57;;;;;;;22.88;12.23;;;0.80;99.90;;;;;;5055067;28;20067;-68
2022/12/19 00:17:22;;;;;;;22.45;11.95;;;0.70;99.90;;;;;;5053736;28;20040;-68
2022/12/19 00:19:48;;;;;;;21.40;12.98;;;0.80;99.90;;;;;;5055613;28;20045;-68
2022/12/19 00:22:14;;;;;;;26.05;13.95;;;0.60;99.90;;;;;;5054678;28;20448;-69
2022/12/19 00:24:39;;;;;;;27.20;12.90;;;0.70;99.90;;;;;;5053703;28;20057;-68
2022/12/19 00:27:05;;;;;;;21.27;12.73;;;0.70;99.90;;;;;;5054318;28;20098;-68
2022/12/19 00:29:32;;;;;;;22.40;12.50;;;0.50;99.90;;;;;;5054547;28;20045;-68
2022/12/19 00:31:57;;;;;;;25.95;13.18;;;2.10;99.90;;;;;;5053584;28;20071;-68
2022/12/19 00:34:23;;;;;;;24.05;13.55;;;0.90;99.90;;;;;;5053191;28;20041;-68
2022/12/19 00:36:49;;;;;;;23.30;12.30;;;0.40;99.90;;;;;;5053747;28;20041;-69
2022/12/19 00:39:15;;;;;;;23.58;13.38;;;1.50;99.90;;;;;;5053509;28;20081;-69
2022/12/19 00:41:40;;;;;;;26.27;13.38;;;1.20;99.90;;;;;;5053388;28;20405;-69
2022/12/19 00:44:10;;;;;;;24.20;12.68;;;1.00;99.90;;;;;;5054514;28;20427;-68
2022/12/19 00:46:36;;;;;;;27.83;13.57;;;1.00;99.90;;;;;;5054441;28;20044;-68
2022/12/19 00:49:02;;;;;;;25.42;13.07;;;0.60;99.90;;;;;;5054180;28;20061;-68
2022/12/19 00:51:30;;;;;;;24.08;12.43;;;0.90;99.90;;;;;;5054384;28;20142;-68
2022/12/19 00:53:57;;;;;;;23.50;13.07;;;0.70;99.90;;;;;;5054279;28;20045;-68
2022/12/19 00:56:28;;;;;;;23.88;12.75;;;0.60;99.90;;;;;;5054016;28;20515;-68
2022/12/19 00:58:55;;;;;;;22.65;12.20;;;1.00;99.90;;;;;;5054946;28;20072;-68
2022/12/19 01:01:29;;;;;;;23.52;12.55;;;1.50;99.90;;;;;;5053263;28;20449;-69
2022/12/19 01:03:57;;;;;;;27.05;13.20;;;0.70;99.90;;;;;;5054207;28;20051;-68
2022/12/19 01:06:23;;;;;;;26.17;13.70;;;0.90;99.90;;;;;;5053022;28;20099;-68
2022/12/19 01:08:48;;;;;;;23.67;13.23;;;1.50;99.90;;;;;;5054180;28;20045;-68
2022/12/19 01:11:14;;;;;;;24.05;12.93;;;1.40;99.90;;;;;;5052874;28;20044;-68
2022/12/19 01:13:40;;;;;;;28.70;14.48;;;1.40;99.90;;;;;;5053946;28;20055;-68
2022/12/19 01:16:09;;;;;;;23.48;12.98;;;0.90;99.90;;;;;;5053951;28;20040;-68
2022/12/19 01:18:35;;;;;;;24.65;11.45;;;0.90;99.90;;;;;;5054140;28;20080;-68
2022/12/19 01:21:03;;;;;;;26.08;13.02;;;1.20;99.90;;;;;;5053274;28;20392;-68
2022/12/19 01:23:29;;;;;;;21.85;11.95;;;0.90;99.90;;;;;;5054704;28;20071;-67
2022/12/19 01:25:56;;;;;;;25.60;13.68;;;1.40;99.90;;;;;;5053833;28;20040;-68
2022/12/19 01:28:22;;;;;;;25.45;12.48;;;1.20;99.90;;;;;;5053854;28;20119;-68
2022/12/19 01:30:48;;;;;;;22.02;11.73;;;0.80;99.90;;;;;;5052832;28;20049;-68
2022/12/19 01:33:16;;;;;;;21.35;12.95;;;1.10;99.90;;;;;;5053758;28;20504;-69
2022/12/19 01:35:42;;;;;;;28.02;13.93;;;1.10;99.90;;;;;;5052453;28;20040;-69
2022/12/19 01:38:16;;;;;;;23.42;12.38;;;1.20;99.90;;;;;;5053656;28;20056;-68
2022/12/19 01:40:53;;;;;;;23.90;13.57;;;1.60;99.90;;;;;;5053971;28;20103;-68
2022/12/19 01:43:21;;;;;;;24.85;13.20;;;1.00;99.90;;;;;;5052662;28;20056;-68
2022/12/19 01:45:49;;;;;;;25.00;12.88;;;0.90;99.90;;;;;;5053621;28;20052;-68
2022/12/19 01:48:32;;;;;;;26.15;12.98;;;0.80;99.90;;;;;;5052428;28;20052;-68
2022/12/19 01:51:03;;;;;;;22.55;11.32;;;1.00;99.90;;;;;;5053519;28;20072;-68
2022/12/19 01:53:51;;;;;;;23.73;13.00;;;1.10;99.90;;;;;;5053854;28;20053;-68
2022/12/19 01:56:20;;;;;;;23.02;12.77;;;1.00;99.90;;;;;;5054033;28;20053;-68
2022/12/19 01:58:48;;;;;;;23.58;11.50;;;1.40;99.90;;;;;;5054238;28;20052;-68
2022/12/19 02:01:16;;;;;;;25.33;13.38;;;1.20;99.90;;;;;;5056614;28;20128;-68
2022/12/19 02:03:43;;;;;;;25.95;12.85;;;1.40;99.90;;;;;;5059628;28;20087;-68
2022/12/19 02:06:09;;;;;;;21.05;11.52;;;1.20;99.90;;;;;;5060032;28;20055;-68
2022/12/19 02:08:36;;;;;;;21.42;11.88;;;1.20;99.90;;;;;;5059587;28;20048;-68
2022/12/19 02:11:02;;;;;;;24.73;13.15;;;1.60;99.90;;;;;;5060276;28;20036;-68
2022/12/19 02:13:27;;;;;;;25.98;13.52;;;1.90;99.90;;;;;;5060489;28;20053;-69
2022/12/19 02:16:34;;;;;;;26.95;12.85;;;1.30;99.90;;;;;;5059833;28;20045;-68
2022/12/19 02:19:48;;;;;;;24.35;12.10;;;1.20;99.90;;;;;;5059523;28;20094;-68
2022/12/19 02:22:29;;;;;;;;;;;1.10;99.90;;;;;;5060319;28;20048;-68
2022/12/19 02:25:13;;;;;;;24.38;12.90;;;1.40;99.90;;;;;;5059746;28;19928;-69
2022/12/19 02:28:00;;;;;;;22.00;11.98;;;1.30;99.90;;;;;;5060743;28;20045;-69
2022/12/19 02:30:40;;;;;;;27.90;12.63;;;1.30;99.90;;;;;;5060139;28;20103;-68
2022/12/19 02:33:20;;;;;;;27.08;12.73;;;1.50;99.90;;;;;;5059763;28;20047;-68
2022/12/19 02:35:53;;;;;;;22.92;11.60;;;1.80;99.90;;;;;;5060032;28;20116;-68
2022/12/19 02:38:27;;;;;;;;;;;1.90;99.90;;;;;;5059184;28;20052;-69
2022/12/19 02:41:10;;;;;;;24.92;11.90;;;1.20;99.90;;;;;;5059760;28;19927;-68
2022/12/19 02:43:41;;;;;;;26.23;12.65;;;1.40;99.90;;;;;;5060557;28;20084;-68
2022/12/19 02:46:08;;;;;;;27.35;13.50;;;1.70;99.90;;;;;;5059993;28;20051;-68
2022/12/19 02:48:35;;;;;;;26.80;14.18;;;1.90;99.90;;;;;;5059496;28;20064;-68
2022/12/19 02:51:01;;;;;;;26.52;13.23;;;1.50;99.90;;;;;;5075173;28;20048;-68
2022/12/19 02:53:27;;;;;;;26.52;13.55;;;1.70;99.90;;;;;;5060391;28;20415;-68
2022/12/19 02:56:24;;;;;;;25.00;14.68;;;1.70;99.90;;;;;;5059558;28;20048;-69
2022/12/19 02:59:13;;;;;;;27.25;13.40;;;1.50;99.90;;;;;;5058925;28;20045;-68
2022/12/19 03:01:46;;;;;;;27.17;14.40;;;1.40;99.90;;;;;;5058680;28;20049;-68
2022/12/19 03:04:30;;;;;;;25.38;13.60;;;2.30;99.90;;;;;;5057983;28;20041;-68
2022/12/19 03:07:09;;;;;;;27.27;14.07;;;1.50;99.90;;;;;;5059836;28;20094;-68
2022/12/19 03:10:13;;;;;;;28.92;14.00;;;1.40;99.90;;;;;;5059822;28;20106;-68
2022/12/19 03:12:52;;;;;;;29.33;14.05;;;1.40;99.90;;;;;;5055804;28;20041;-68
2022/12/19 03:15:19;;;;;;;26.88;14.52;;;2.10;99.90;;;;;;5056801;28;20075;-68
2022/12/19 03:17:46;;;;;;;29.88;15.38;;;1.50;99.90;;;;;;5056180;28;20427;-68
2022/12/19 03:20:31;;;;;;;29.20;15.15;;;1.30;99.90;;;;;;5056175;28;20055;-68
2022/12/19 03:22:56;;;;;;;29.67;14.05;;;2.40;99.90;;;;;;5056109;28;20053;-68
2022/12/19 03:25:24;;;;;;;30.45;14.70;;;1.20;99.90;;;;;;5056078;28;20063;-68
2022/12/19 03:27:52;;;;;;;26.25;14.05;;;1.60;99.90;;;;;;5056859;28;20342;-68
2022/12/19 03:30:17;;;;;;;27.63;15.13;;;2.20;99.90;;;;;;5055698;28;20053;-68
2022/12/19 03:32:46;;;;;;;28.02;14.45;;;1.40;99.90;;;;;;5055015;28;20045;-68
2022/12/19 03:35:17;;;;;;;30.38;15.15;;;1.90;99.90;;;;;;5055835;28;20049;-68
2022/12/19 03:37:46;;;;;;;26.85;14.55;;;1.20;99.90;;;;;;5055943;28;20053;-68
2022/12/19 03:40:20;;;;;;;29.65;15.80;;;1.80;99.90;;;;;;5055191;28;20472;-68
2022/12/19 03:46:00;;;;;;;27.13;13.88;;;2.70;99.90;;;;;;5055725;28;20048;-68
2022/12/19 03:48:29;;;;;;;28.83;15.38;;;1.40;99.90;;;;;;5038485;28;20065;-68
2022/12/19 03:51:06;;;;;;;30.98;16.40;;;1.40;99.90;;;;;;5055643;28;20045;-68
2022/12/19 03:53:47;;;;;;;29.70;15.18;;;1.70;99.90;;;;;;5055619;28;20106;-68
2022/12/19 03:56:39;;;;;;;28.20;14.10;;;1.70;99.90;;;;;;5055822;28;20095;-69
2022/12/19 03:59:46;;;;;;;28.35;15.02;;;1.50;99.90;;;;;;5055222;28;20445;-68
2022/12/19 04:02:13;;;;;;;27.48;14.40;;;1.50;99.90;;;;;;5013359;28;20053;-68
2022/12/19 04:04:44;;;;;;;28.42;13.50;;;1.50;99.90;;;;;;5048040;28;20049;-68
2022/12/19 04:07:12;;;;;;;26.77;15.48;;;2.00;99.90;;;;;;5055641;28;20049;-69
2022/12/19 04:09:40;;;;;;;27.75;14.32;;;1.30;99.90;;;;;;5055257;28;20048;-69
2022/12/19 04:12:13;;;;;;;28.08;14.90;;;1.70;99.90;;;;;;5055215;28;20049;-68
2022/12/19 04:14:39;;;;;;;30.43;13.87;;;2.10;99.90;;;;;;5055144;28;20044;-68
2022/12/19 04:17:19;;;;;;;34.00;16.08;;;1.60;99.90;;;;;;5055329;28;20722;-68
2022/12/19 04:19:58;;;;;;;31.65;15.95;;;1.60;99.90;;;;;;5055143;28;20052;-68
2022/12/19 04:22:39;;;;;;;27.02;14.32;;;1.60;99.90;;;;;;5055890;28;20377;-69
2022/12/19 04:25:10;;;;;;;28.60;16.05;;;1.60;99.90;;;;;;5055501;28;20098;-69
2022/12/19 04:27:39;;;;;;;30.83;16.25;;;1.70;99.90;;;;;;5053856;28;20053;-67
2022/12/19 04:30:05;;;;;;;27.30;14.75;;;2.60;99.90;;;;;;5055423;28;20045;-68
2022/12/19 04:32:34;;;;;;;28.67;14.85;;;1.80;99.90;;;;;;5037283;28;20489;-69
2022/12/19 04:35:00;;;;;;;28.23;15.18;;;2.00;99.90;;;;;;5037785;28;20048;-68
2022/12/19 04:37:25;;;;;;;29.65;16.23;;;2.40;99.90;;;;;;5037508;28;20037;-69
2022/12/19 04:39:52;;;;;;;35.40;16.50;;;2.00;99.90;;;;;;5053738;28;20111;-69
2022/12/19 04:42:17;;;;;;;33.97;16.50;;;1.70;99.90;;;;;;5055185;28;20532;-68
2022/12/19 04:44:43;;;;;;;32.47;15.27;;;3.50;99.90;;;;;;5037130;28;20053;-69
2022/12/19 04:47:09;;;;;;;33.00;16.52;;;2.40;99.90;;;;;;5055035;28;20455;-68
2022/12/19 04:49:34;;;;;;;33.30;16.45;;;2.30;99.90;;;;;;5053246;28;20393;-68
2022/12/19 04:52:00;;;;;;;29.95;15.40;;;2.00;99.90;;;;;;5055050;28;20131;-68
2022/12/19 04:54:26;;;;;;;31.63;16.83;;;2.60;99.90;;;;;;5054314;28;20037;-69
2022/12/19 04:56:52;;;;;;;33.20;15.95;;;2.00;99.90;;;;;;5055230;28;20045;-69
2022/12/19 04:59:18;;;;;;;30.08;15.80;;;2.00;99.90;;;;;;5054890;28;20114;-69
2022/12/19 05:01:44;;;;;;;33.25;16.73;;;2.40;99.90;;;;;;5053350;28;20132;-69
2022/12/19 05:04:10;;;;;;;33.42;16.80;;;2.20;99.90;;;;;;5054177;28;20049;-69
2022/12/19 05:06:36;;;;;;;32.67;15.13;;;2.50;99.90;;;;;;5054222;28;20127;-69
2022/12/19 05:09:01;;;;;;;29.55;16.27;;;1.70;99.90;;;;;;5054147;28;20172;-70
2022/12/19 05:11:27;;;;;;;34.13;16.98;;;2.10;99.90;;;;;;5054921;28;20465;-69
2022/12/19 05:13:53;;;;;;;32.60;16.58;;;2.40;99.90;;;;;;5053052;28;20047;-69
2022/12/19 05:16:18;;;;;;;35.75;16.55;;;2.20;99.90;;;;;;5054313;28;20487;-69
2022/12/19 05:18:44;;;;;;;30.50;16.27;;;2.10;99.90;;;;;;5052734;28;20044;-69
2022/12/19 05:21:10;;;;;;;33.80;17.15;;;2.00;99.90;;;;;;5053608;28;20041;-69
2022/12/19 05:23:37;;;;;;;35.15;16.92;;;2.30;99.90;;;;;;5053250;28;20102;-69
2022/12/19 05:26:04;;;;;;;34.53;17.27;;;2.90;99.90;;;;;;5052678;28;20448;-69
2022/12/19 05:28:31;;;;;;;32.33;17.15;;;1.90;99.90;;;;;;5054363;28;20045;-69
2022/12/19 05:31:05;;;;;;;35.03;18.15;;;2.40;99.90;;;;;;5053770;28;20052;-69
2022/12/19 05:33:30;;;;;;;32.72;17.80;;;2.30;99.90;;;;;;5053779;28;20041;-69
2022/12/19 05:35:56;;;;;;;33.28;16.70;;;2.20;99.90;;;;;;5052607;28;20040;-68
2022/12/19 05:38:22;;;;;;;32.47;16.80;;;2.30;99.90;;;;;;5053752;28;20516;-69
2022/12/19 05:40:48;;;;;;;31.27;16.27;;;2.30;99.90;;;;;;5052472;28;20048;-69
2022/12/19 05:43:13;;;;;;;34.08;16.88;;;2.30;99.90;;;;;;5053858;28;20132;-69
2022/12/19 05:45:39;;;;;;;37.42;18.10;;;2.90;99.90;;;;;;5053342;28;20049;-69
2022/12/19 05:48:05;;;;;;;32.88;15.55;;;3.20;99.90;;;;;;5052000;28;20044;-69
2022/12/19 05:50:31;;;;;;;35.60;17.08;;;2.40;99.90;;;;;;5051920;28;20053;-69
2022/12/19 05:52:56;;;;;;;32.38;17.05;;;2.50;99.90;;;;;;5052371;28;20088;-69
2022/12/19 05:55:22;;;;;;;33.42;16.95;;;2.90;99.90;;;;;;5054245;28;20427;-69
2022/12/19 05:57:48;;;;;;;32.38;16.92;;;3.10;99.90;;;;;;5053474;28;20053;-69
2022/12/19 06:00:15;;;;;;;41.83;20.40;;;2.30;99.90;;;;;;5052520;28;20053;-69
2022/12/19 06:02:41;;;;;;;38.72;18.88;;;2.40;99.90;;;;;;5053415;28;20167;-69
2022/12/19 06:05:07;;;;;;;34.72;18.67;;;4.00;99.90;;;;;;5053416;28;20508;-69
2022/12/19 06:07:33;;;;;;;38.25;19.13;;;2.30;99.90;;;;;;5054180;28;20131;-69
2022/12/19 06:09:59;;;;;;;39.20;19.15;;;2.50;99.90;;;;;;5053836;28;20052;-68
2022/12/19 06:12:25;;;;;;;39.75;18.65;;;3.80;99.90;;;;;;5053289;28;20058;-69
2022/12/19 06:14:51;;;;;;;39.03;20.02;;;2.80;99.90;;;;;;5053239;28;20041;-69
2022/12/19 06:17:16;;;;;;;34.25;17.63;;;2.30;99.90;;;;;;5052287;28;20103;-68
2022/12/19 06:19:43;;;;;;;34.95;17.38;;;2.60;99.90;;;;;;5053809;28;20095;-69
2022/12/19 06:22:08;;;;;;;32.78;16.55;;;2.90;99.90;;;;;;5053247;28;20174;-69
2022/12/19 06:24:34;;;;;;;37.00;18.25;;;2.40;99.90;;;;;;5051678;28;20088;-69
2022/12/19 06:26:59;;;;;;;30.70;17.00;;;3.00;99.90;;;;;;5053298;28;20072;-69
2022/12/19 06:29:25;;;;;;;35.50;17.90;;;2.90;99.90;;;;;;5051937;28;20131;-69
2022/12/19 06:31:51;;;;;;;34.45;17.80;;;3.50;99.90;;;;;;5054015;28;20107;-69
2022/12/19 06:34:17;;;;;;;37.50;17.55;;;2.60;99.90;;;;;;5053094;28;20081;-69
2022/12/19 06:36:42;;;;;;;34.80;16.83;;;2.60;99.90;;;;;;5053153;28;20048;-69
2022/12/19 06:39:12;;;;;;;33.60;16.80;;;3.10;99.90;;;;;;5053118;28;20096;-69
2022/12/19 06:44:22;;;;;;;31.42;17.92;;;3.20;99.90;;;;;;5053432;28;20103;-69
2022/12/19 06:46:48;;;;;;;36.90;17.30;;;3.30;99.90;;;;;;5054438;28;20444;-69
2022/12/19 06:49:14;;;;;;;34.17;17.15;;;2.90;99.90;;;;;;5056742;28;20061;-69
2022/12/19 06:51:39;;;;;;;31.15;16.77;;;2.70;99.90;;;;;;5057316;28;20424;-69
2022/12/19 06:54:05;;;;;;;35.30;17.30;;;2.60;99.90;;;;;;5056636;28;20404;-68
2022/12/19 06:56:35;;;;;;;37.83;19.13;;;2.80;99.90;;;;;;5039126;28;20107;-69
2022/12/19 06:59:01;;;;;;;33.75;16.58;;;2.90;99.90;;;;;;5056656;28;20087;-69
2022/12/19 07:01:45;;;;;;;30.40;16.50;;;3.50;99.90;;;;;;5056645;28;20072;-68
2022/12/19 07:04:14;;;;;;;30.73;16.75;;;2.80;99.90;;;;;;5057401;28;20112;-69
2022/12/19 07:06:40;;;;;;;32.25;15.88;;;2.90;99.90;;;;;;5055240;28;20064;-68
2022/12/19 07:09:06;;;;;;;36.28;17.00;;;3.60;99.90;;;;;;5056475;28;20389;-68
2022/12/19 07:11:31;;;;;;;32.72;17.08;;;3.10;99.90;;;;;;5055791;28;20067;-68
2022/12/19 07:13:57;;;;;;;35.08;16.77;;;3.20;99.90;;;;;;5056252;28;20045;-68
2022/12/19 07:16:24;;;;;;;29.98;15.90;;;3.00;99.90;;;;;;5056343;28;20123;-68
2022/12/19 07:18:50;;;;;;;39.50;18.98;;;3.10;99.90;;;;;;5055268;28;20443;-67
2022/12/19 07:21:16;;;;;;;31.38;17.63;;;4.00;99.90;;;;;;5056269;28;20049;-67
2022/12/19 07:23:42;;;;;;;38.13;18.90;;;3.60;99.90;;;;;;5056994;28;20040;-67
2022/12/19 07:26:08;;;;;;;46.95;19.27;;;3.30;99.90;;;;;;5055862;28;20527;-67
2022/12/19 07:28:35;;;;;;;33.10;17.35;;;3.70;99.90;;;;;;5057020;28;20053;-67
2022/12/19 07:31:01;;;;;;;33.83;17.92;;;3.10;99.90;;;;;;5056465;28;20053;-66
2022/12/19 07:33:26;;;;;;;39.20;20.05;;;3.50;99.90;;;;;;5056096;28;20515;-66
2022/12/19 07:35:52;;;;;;;28.92;15.38;;;3.50;99.90;;;;;;5054791;28;20045;-66
2022/12/19 07:38:18;;;;;;;29.38;15.77;;;3.60;99.90;;;;;;5056228;28;20542;-67
2022/12/19 07:40:43;;;;;;;35.08;15.93;;;3.30;99.90;;;;;;5055897;28;20041;-66
2022/12/19 07:43:09;;;;;;;31.15;16.45;;;3.50;99.90;;;;;;5056707;28;20041;-67
2022/12/19 07:45:37;;;;;;;30.20;14.45;;;3.40;99.90;;;;;;5055810;28;20090;-66
2022/12/19 07:48:04;;;;;;;30.38;15.05;;;3.30;99.90;;;;;;5054754;28;20060;-67
2022/12/19 07:50:30;;;;;;;28.25;14.50;;;3.20;99.90;;;;;;5056451;28;20385;-67
2022/12/19 07:52:57;;;;;;;25.60;14.63;;;3.50;99.90;;;;;;5055748;28;20041;-67
2022/12/19 07:55:23;;;;;;;29.70;15.73;;;4.20;99.90;;;;;;5054494;28;20119;-67
2022/12/19 07:57:49;;;;;;;28.55;14.75;;;3.60;99.90;;;;;;5055085;28;20129;-67
2022/12/19 08:00:15;;;;;;;27.90;14.85;;;3.40;99.90;;;;;;5056268;28;20127;-67
2022/12/19 08:02:41;;;;;;;30.27;14.95;;;3.30;99.90;;;;;;5055924;28;20041;-67
2022/12/19 08:05:07;;;;;;;30.63;14.80;;;4.10;99.90;;;;;;5054378;28;20108;-67
2022/12/19 08:07:32;;;;;;;30.35;14.88;;;3.60;99.90;;;;;;5055607;28;20049;-67
2022/12/19 08:09:58;;;;;;;31.63;14.50;;;3.80;99.90;;;;;;5055327;28;20041;-67
2022/12/19 08:12:24;;;;;;;29.08;14.30;;;3.70;99.90;;;;;;5054300;28;20489;-67
2022/12/19 08:14:49;;;;;;;28.67;14.40;;;3.80;99.90;;;;;;5053999;28;20045;-68
2022/12/19 08:17:15;;;;;;;27.58;14.55;;;3.80;99.90;;;;;;5055417;28;20178;-67
2022/12/19 08:19:41;;;;;;;30.35;15.05;;;4.50;99.90;;;;;;5055174;28;20045;-68
2022/12/19 08:22:06;;;;;;;32.25;15.40;;;4.00;99.90;;;;;;5055134;28;20052;-67
2022/12/19 08:24:33;;;;;;;26.50;14.02;;;4.30;99.90;;;;;;5055720;28;20047;-68
2022/12/19 08:26:58;;;;;;;26.27;14.50;;;3.90;99.90;;;;;;5053931;28;20131;-68
2022/12/19 08:29:24;;;;;;;30.98;15.27;;;4.00;99.90;;;;;;5055673;28;20127;-68
2022/12/19 08:31:50;;;;;;;30.50;14.90;;;3.90;99.90;;;;;;5055575;28;20037;-68
2022/12/19 08:34:16;;;;;;;27.45;14.43;;;3.80;99.90;;;;;;5054977;28;20048;-68
2022/12/19 08:36:41;;;;;;;28.15;13.20;;;4.00;99.90;;;;;;5055552;28;20071;-68
2022/12/19 08:39:07;;;;;;;30.50;14.65;;;3.90;99.90;;;;;;5054902;28;20041;-68
2022/12/19 08:41:33;;;;;;;28.42;14.68;;;4.10;99.90;;;;;;5055383;28;20044;-69
2022/12/19 08:43:59;;;;;;;25.23;13.93;;;4.10;99.90;;;;;;5054135;28;20086;-68
2022/12/19 08:46:26;;;;;;;24.42;12.43;;;4.50;99.90;;;;;;5054761;28;20049;-67
2022/12/19 08:48:52;;;;;;;29.20;13.23;;;4.20;99.90;;;;;;5054978;28;20053;-67
2022/12/19 08:51:18;;;;;;;25.77;12.95;;;4.80;99.90;;;;;;5054144;28;20178;-67
2022/12/19 08:53:45;;;;;;;23.27;12.57;;;4.30;99.90;;;;;;5054627;28;20049;-68
2022/12/19 08:56:20;;;;;;;34.33;14.75;;;4.80;99.90;;;;;;5054478;28;20053;-67
2022/12/19 08:58:47;;;;;;;20.02;10.45;;;4.90;99.90;;;;;;5055392;28;20089;-67
2022/12/19 09:01:17;;;;;;;25.77;13.88;;;4.00;99.90;;;;;;5054474;28;20052;-68
2022/12/19 09:03:43;;;;;;;21.77;11.70;;;4.30;99.90;;;;;;5054546;28;20045;-68
2022/12/19 09:06:11;;;;;;;25.50;12.05;;;4.40;99.90;;;;;;5054330;28;20062;-72
2022/12/19 09:08:37;;;;;;;30.55;14.10;;;4.50;99.90;;;;;;5055105;28;20045;-68
2022/12/19 09:11:08;;;;;;;21.48;11.57;;;4.80;99.90;;;;;;5052305;28;20048;-69
2022/12/19 09:13:36;;;;;;;25.10;12.23;;;4.40;99.90;;;;;;5053502;28;20037;-69
2022/12/19 09:16:27;;;;;;;20.35;11.48;;;4.30;99.90;;;;;;5054086;28;20045;-69
2022/12/19 09:18:55;;;;;;;20.23;10.63;;;4.30;99.90;;;;;;5035687;28;20053;-69
2022/12/19 09:21:22;;;;;;;21.25;10.98;;;4.30;99.90;;;;;;5054058;28;20048;-69
2022/12/19 09:23:53;;;;;;;20.88;10.95;;;4.90;99.90;;;;;;5054100;28;20088;-69
2022/12/19 09:26:21;;;;;;;23.52;11.52;;;4.70;99.90;;;;;;5054028;28;20083;-68
2022/12/19 09:28:47;;;;;;;20.88;10.48;;;4.50;99.90;;;;;;5020560;28;20056;-69
2022/12/19 09:31:17;;;;;;;18.77;10.07;;;5.30;99.90;;;;;;5054763;28;20104;-69
2022/12/19 09:33:43;;;;;;;19.20;10.73;;;4.90;99.90;;;;;;5054726;28;20063;-69
2022/12/19 09:36:18;;;;;;;22.08;11.93;;;5.10;99.90;;;;;;5053802;28;20110;-70
2022/12/19 09:38:45;;;;;;;22.45;10.75;;;4.50;99.90;;;;;;5053715;28;20056;-70
2022/12/19 09:41:44;;;;;;;18.13;11.05;;;5.30;99.90;;;;;;5053453;28;20063;-69
2022/12/19 09:44:46;;;;;;;22.00;10.73;;;4.40;99.90;;;;;;5052712;28;20060;-68
2022/12/19 09:47:16;;;;;;;19.65;11.05;;;5.30;99.90;;;;;;5052992;28;20045;-68
2022/12/19 09:49:45;;;;;;;31.65;14.13;;;4.90;99.90;;;;;;5053305;28;20055;-67
2022/12/19 09:52:20;;;;;;;26.27;13.07;;;4.60;99.90;;;;;;5052387;28;20052;-67
2022/12/19 09:54:55;;;;;;;26.92;12.43;;;4.70;99.90;;;;;;5053572;28;20465;-66
2022/12/19 09:57:38;;;;;;;19.10;11.95;;;4.60;99.90;;;;;;5054037;28;20056;-68
2022/12/19 10:00:10;;;;;;;22.00;12.73;;;4.70;99.90;;;;;;5052524;28;20057;-67
2022/12/19 10:02:49;;;;;;;24.90;12.50;;;4.80;99.90;;;;;;5054107;28;20049;-67
2022/12/19 10:05:32;;;;;;;23.40;13.68;;;4.70;99.90;;;;;;5054345;28;20045;-67
2022/12/19 10:07:58;;;;;;;25.60;12.93;;;4.90;99.90;;;;;;5036232;28;20055;-67
2022/12/19 10:10:34;;;;;;;20.05;13.27;;;5.20;99.90;;;;;;5052349;28;20048;-67
2022/12/19 10:13:14;;;;;;;22.83;12.98;;;5.20;99.90;;;;;;5053701;28;20405;-67
2022/12/19 10:16:19;;;;;;;24.77;14.13;;;4.90;99.90;;;;;;5053387;28;20435;-68
2022/12/19 10:19:08;;;;;;;24.00;14.60;;;4.90;99.90;;;;;;5044358;28;20053;-67
2022/12/19 10:21:59;;;;;;;32.50;15.80;;;4.90;99.90;;;;;;5054064;28;20099;-67
2022/12/19 10:25:02;;;;;;;26.77;14.50;;;5.00;99.90;;;;;;5057651;28;20392;-67
2022/12/19 10:27:57;;;;;;;20.67;12.80;;;4.90;99.90;;;;;;5056101;28;20088;-67
2022/12/19 10:30:24;;;;;;;27.70;13.93;;;5.10;99.90;;;;;;5057319;28;20045;-67
2022/12/19 10:33:09;;;;;;;26.38;13.98;;;5.30;99.90;;;;;;5057241;28;20041;-67
2022/12/19 10:35:41;;;;;;;28.85;15.07;;;5.30;99.90;;;;;;5057084;28;20124;-67
2022/12/19 10:38:10;;;;;;;25.73;14.55;;;5.40;99.90;;;;;;5057128;28;20048;-67
2022/12/19 10:40:47;;;;;;;24.90;14.15;;;5.50;99.90;;;;;;5057322;28;20453;-67
2022/12/19 10:43:43;;;;;;;24.90;13.07;;;5.20;99.90;;;;;;5040302;28;20060;-67
2022/12/19 10:46:30;;;;;;;27.45;13.45;;;5.20;99.90;;;;;;5057800;28;20044;-67
2022/12/19 10:48:55;;;;;;;21.95;12.68;;;5.10;99.90;;;;;;5045208;28;20053;-67
2022/12/19 10:51:26;;;;;;;23.80;13.65;;;5.30;99.90;;;;;;5057708;28;20095;-67
2022/12/19 10:53:54;;;;;;;24.23;13.15;;;5.70;99.90;;;;;;5057489;28;20112;-68
2022/12/19 10:56:23;;;;;;;21.42;12.32;;;6.10;99.90;;;;;;5056495;28;20036;-68
2022/12/19 10:58:58;;;;;;;25.58;12.13;;;5.30;99.90;;;;;;5057215;28;20102;-69
2022/12/19 11:01:39;;;;;;;20.67;12.30;;;5.70;99.90;;;;;;5057150;28;20053;-68
2022/12/19 11:04:29;;;;;;;26.38;13.93;;;5.70;99.90;;;;;;5056017;28;20125;-68
2022/12/19 11:07:04;;;;;;;22.08;11.57;;;5.40;99.90;;;;;;5056806;28;20445;-68
2022/12/19 11:09:38;;;;;;;19.73;12.13;;;5.50;99.90;;;;;;5056669;28;20131;-68
2022/12/19 11:12:06;;;;;;;27.50;13.48;;;5.80;99.90;;;;;;5056090;28;20044;-68
2022/12/19 11:14:34;;;;;;;26.70;13.80;;;5.50;99.90;;;;;;5038487;28;20045;-67
2022/12/19 11:17:00;;;;;;;23.67;12.52;;;5.50;99.90;;;;;;5056037;28;20045;-67
2022/12/19 11:19:29;;;;;;;22.27;12.52;;;5.90;99.90;;;;;;5056626;28;20045;-67
2022/12/19 11:22:20;;;;;;;17.88;11.07;;;5.50;99.90;;;;;;5055916;28;20065;-67
2022/12/19 11:24:52;;;;;;;19.92;10.95;;;6.00;99.90;;;;;;5050952;28;20053;-67
2022/12/19 11:27:41;;;;;;;17.35;10.82;;;6.00;99.90;;;;;;5055264;28;20056;-67
2022/12/19 11:30:30;;;;;;;18.27;10.65;;;5.70;99.90;;;;;;5055949;28;20132;-67
2022/12/19 11:33:14;;;;;;;22.50;12.50;;;6.30;99.90;;;;;;5054906;28;20045;-67
2022/12/19 11:35:49;;;;;;;17.98;10.98;;;5.70;99.90;;;;;;5054683;28;20477;-67
2022/12/19 11:38:38;;;;;;;17.55;10.38;;;5.80;99.90;;;;;;5055803;28;20052;-67
2022/12/19 11:41:15;;;;;;;17.92;10.02;;;5.80;99.90;;;;;;5056575;28;20080;-67
2022/12/19 11:44:00;;;;;;;17.15;10.40;;;5.80;99.90;;;;;;5055730;28;20049;-67
2022/12/19 11:46:45;;;;;;;17.05;9.98;;;6.00;99.90;;;;;;5055461;28;20488;-67
2022/12/19 11:49:30;;;;;;;22.17;11.93;;;6.00;99.90;;;;;;5055289;28;20111;-67
2022/12/19 11:52:36;;;;;;;18.90;10.48;;;5.80;99.90;;;;;;5054447;28;20060;-68
2022/12/19 11:55:24;;;;;;;20.10;11.50;;;5.90;99.90;;;;;;5041373;28;20374;-68
2022/12/19 11:57:51;;;;;;;22.52;11.27;;;6.20;99.90;;;;;;5054755;28;20095;-67
2022/12/19 12:00:20;;;;;;;18.90;10.48;;;6.50;99.90;;;;;;5055387;28;20119;-67
2022/12/19 12:02:49;;;;;;;16.45;10.45;;;5.80;99.90;;;;;;5056155;28;20052;-67
2022/12/19 12:05:39;;;;;;;17.60;10.75;;;5.90;99.90;;;;;;5055856;28;20076;-68
2022/12/19 12:08:49;;;;;;;18.75;10.38;;;6.00;99.90;;;;;;5055248;28;20051;-67
2022/12/19 12:11:53;;;;;;;18.90;11.02;;;5.90;99.90;;;;;;5055585;28;20049;-68
2022/12/19 12:14:25;;;;;;;18.13;10.90;;;6.20;99.90;;;;;;5048643;28;20065;-67
2022/12/19 12:16:53;;;;;;;17.33;10.27;;;6.20;99.90;;;;;;5054908;28;20049;-67
2022/12/19 12:19:51;;;;;;;15.57;10.15;;;6.00;99.90;;;;;;5054922;28;20045;-67
2022/12/19 12:22:35;;;;;;;16.25;10.20;;;5.70;99.90;;;;;;5055967;28;20068;-68
2022/12/19 12:25:19;;;;;;;17.02;10.43;;;6.30;99.90;;;;;;5055805;28;20071;-66
2022/12/19 12:28:00;;;;;;;15.50;10.07;;;6.30;99.90;;;;;;5055640;28;20045;-68
2022/12/19 12:30:32;;;;;;;22.38;10.40;;;6.10;99.90;;;;;;5055667;28;20041;-67
2022/12/19 12:33:04;;;;;;;16.08;10.45;;;6.40;99.90;;;;;;5053741;28;20056;-66
2022/12/19 12:35:35;;;;;;;17.83;10.93;;;6.20;99.90;;;;;;5055061;28;20044;-67
2022/12/19 12:38:29;;;;;;;18.33;10.18;;;6.60;99.90;;;;;;5054721;28;20045;-67
2022/12/19 12:41:20;;;;;;;15.68;10.20;;;6.40;99.90;;;;;;5054308;28;20481;-67
2022/12/19 12:44:06;;;;;;;15.70;9.30;;;6.40;99.90;;;;;;5053517;28;20084;-67
2022/12/19 12:46:39;;;;;;;15.60;9.65;;;6.30;99.90;;;;;;5054178;28;20057;-67
2022/12/19 12:49:19;;;;;;;17.00;10.13;;;6.30;99.90;;;;;;5054661;28;20057;-66
2022/12/19 12:51:45;;;;;;;18.42;10.88;;;6.30;99.90;;;;;;5054629;28;20095;-66
2022/12/19 12:54:13;;;;;;;17.65;10.48;;;6.30;99.90;;;;;;5054916;28;20044;-67
2022/12/19 12:56:41;;;;;;;18.33;10.27;;;6.80;99.90;;;;;;5054349;28;20052;-67
2022/12/19 12:59:20;;;;;;;19.92;10.98;;;6.20;99.90;;;;;;5053170;28;20049;-66
2022/12/19 13:01:53;;;;;;;17.30;10.77;;;6.10;99.90;;;;;;5036818;28;20057;-67
2022/12/19 13:04:30;;;;;;;18.50;10.73;;;6.30;99.90;;;;;;5054199;28;20060;-67
2022/12/19 13:07:10;;;;;;;19.13;11.00;;;6.50;99.90;;;;;;5053564;28;20049;-67